sensor_id;sensor_type;location;lat;lon;timestamp;P1;durP1;ratioP1;P2;durP2;ratioP2
28960;SDS011;16068;42.896;20.868;2023-07-13T00:00:35;8.20;;;4.40;;
28960;SDS011;16068;42.896;20.868;2023-07-13T00:03:22;10.25;;;4.82;;
28960;SDS011;16068;42.896;20.868;2023-07-13T00:06:08;9.80;;;4.43;;
28960;SDS011;16068;42.896;20.868;2023-07-13T00:09:01;10.35;;;5.00;;
28960;SDS011;16068;42.896;20.868;2023-07-13T00:11:50;9.35;;;4.63;;
28960;SDS011;16068;42.896;20.868;2023-07-13T00:14:43;9.63;;;4.95;;
28960;SDS011;16068;42.896;20.868;2023-07-13T00:17:29;11.25;;;4.43;;
28960;SDS011;16068;42.896;20.868;2023-07-13T00:20:19;9.10;;;4.63;;
28960;SDS011;16068;42.896;20.868;2023-07-13T00:23:07;8.23;;;4.03;;
28960;SDS011;16068;42.896;20.868;2023-07-13T00:25:53;6.78;;;4.30;;
28960;SDS011;16068;42.896;20.868;2023-07-13T00:28:43;8.73;;;4.80;;
28960;SDS011;16068;42.896;20.868;2023-07-13T00:31:29;6.97;;;4.68;;
28960;SDS011;16068;42.896;20.868;2023-07-13T00:34:16;9.20;;;4.57;;
28960;SDS011;16068;42.896;20.868;2023-07-13T00:37:02;9.32;;;4.40;;
28960;SDS011;16068;42.896;20.868;2023-07-13T00:39:49;8.18;;;4.30;;
28960;SDS011;16068;42.896;20.868;2023-07-13T00:42:38;8.13;;;4.68;;
28960;SDS011;16068;42.896;20.868;2023-07-13T00:48:17;7.28;;;4.28;;
28960;SDS011;16068;42.896;20.868;2023-07-13T00:51:06;8.38;;;4.35;;
28960;SDS011;16068;42.896;20.868;2023-07-13T00:53:53;6.65;;;3.78;;
28960;SDS011;16068;42.896;20.868;2023-07-13T00:56:41;10.70;;;4.35;;
28960;SDS011;16068;42.896;20.868;2023-07-13T00:59:29;9.00;;;4.15;;
28960;SDS011;16068;42.896;20.868;2023-07-13T01:02:15;8.18;;;4.22;;
28960;SDS011;16068;42.896;20.868;2023-07-13T01:05:01;6.03;;;4.32;;
28960;SDS011;16068;42.896;20.868;2023-07-13T01:07:51;7.68;;;4.70;;
28960;SDS011;16068;42.896;20.868;2023-07-13T01:10:37;6.28;;;4.20;;
28960;SDS011;16068;42.896;20.868;2023-07-13T01:13:26;9.52;;;4.15;;
28960;SDS011;16068;42.896;20.868;2023-07-13T01:16:22;7.07;;;4.40;;
28960;SDS011;16068;42.896;20.868;2023-07-13T01:22:16;7.97;;;4.28;;
28960;SDS011;16068;42.896;20.868;2023-07-13T01:25:04;6.47;;;4.30;;
28960;SDS011;16068;42.896;20.868;2023-07-13T01:27:50;7.90;;;4.32;;
28960;SDS011;16068;42.896;20.868;2023-07-13T01:30:36;7.60;;;4.00;;
28960;SDS011;16068;42.896;20.868;2023-07-13T01:33:25;8.07;;;4.30;;
28960;SDS011;16068;42.896;20.868;2023-07-13T01:36:11;6.63;;;4.18;;
28960;SDS011;16068;42.896;20.868;2023-07-13T01:38:58;7.53;;;4.22;;
28960;SDS011;16068;42.896;20.868;2023-07-13T01:41:45;7.72;;;4.68;;
28960;SDS011;16068;42.896;20.868;2023-07-13T01:44:31;6.50;;;4.50;;
28960;SDS011;16068;42.896;20.868;2023-07-13T01:47:17;8.57;;;4.47;;
28960;SDS011;16068;42.896;20.868;2023-07-13T01:50:04;9.80;;;4.38;;
28960;SDS011;16068;42.896;20.868;2023-07-13T01:52:51;9.05;;;5.00;;
28960;SDS011;16068;42.896;20.868;2023-07-13T01:55:38;10.65;;;4.20;;
28960;SDS011;16068;42.896;20.868;2023-07-13T01:58:26;9.38;;;4.15;;
28960;SDS011;16068;42.896;20.868;2023-07-13T02:01:12;5.90;;;4.32;;
28960;SDS011;16068;42.896;20.868;2023-07-13T02:03:59;9.60;;;4.40;;
28960;SDS011;16068;42.896;20.868;2023-07-13T02:06:46;6.47;;;4.03;;
28960;SDS011;16068;42.896;20.868;2023-07-13T02:09:45;11.57;;;4.68;;
28960;SDS011;16068;42.896;20.868;2023-07-13T02:12:31;6.60;;;3.97;;
28960;SDS011;16068;42.896;20.868;2023-07-13T02:15:17;6.40;;;3.90;;
28960;SDS011;16068;42.896;20.868;2023-07-13T02:18:04;7.93;;;4.05;;
28960;SDS011;16068;42.896;20.868;2023-07-13T02:20:55;9.45;;;4.72;;
28960;SDS011;16068;42.896;20.868;2023-07-13T02:23:41;5.82;;;4.03;;
28960;SDS011;16068;42.896;20.868;2023-07-13T02:26:33;8.98;;;4.20;;
28960;SDS011;16068;42.896;20.868;2023-07-13T02:29:32;6.65;;;4.00;;
28960;SDS011;16068;42.896;20.868;2023-07-13T02:32:18;6.88;;;4.30;;
28960;SDS011;16068;42.896;20.868;2023-07-13T02:35:07;9.63;;;4.80;;
28960;SDS011;16068;42.896;20.868;2023-07-13T02:37:55;9.20;;;4.80;;
28960;SDS011;16068;42.896;20.868;2023-07-13T02:40:41;7.38;;;4.45;;
28960;SDS011;16068;42.896;20.868;2023-07-13T02:46:35;8.13;;;3.88;;
28960;SDS011;16068;42.896;20.868;2023-07-13T02:49:21;5.43;;;3.85;;
28960;SDS011;16068;42.896;20.868;2023-07-13T02:52:11;9.60;;;3.92;;
28960;SDS011;16068;42.896;20.868;2023-07-13T02:54:57;10.95;;;4.70;;
28960;SDS011;16068;42.896;20.868;2023-07-13T02:57:43;9.35;;;4.38;;
28960;SDS011;16068;42.896;20.868;2023-07-13T03:00:29;7.65;;;4.03;;
28960;SDS011;16068;42.896;20.868;2023-07-13T03:03:16;8.32;;;4.28;;
28960;SDS011;16068;42.896;20.868;2023-07-13T03:06:03;10.95;;;4.30;;
28960;SDS011;16068;42.896;20.868;2023-07-13T03:08:57;8.13;;;4.45;;
28960;SDS011;16068;42.896;20.868;2023-07-13T03:11:44;15.90;;;6.28;;
28960;SDS011;16068;42.896;20.868;2023-07-13T03:14:57;11.98;;;4.32;;
28960;SDS011;16068;42.896;20.868;2023-07-13T03:17:43;11.07;;;4.40;;
28960;SDS011;16068;42.896;20.868;2023-07-13T03:20:36;12.10;;;5.13;;
28960;SDS011;16068;42.896;20.868;2023-07-13T03:23:22;7.55;;;4.00;;
28960;SDS011;16068;42.896;20.868;2023-07-13T03:26:10;7.65;;;4.20;;
28960;SDS011;16068;42.896;20.868;2023-07-13T03:29:01;20.20;;;4.85;;
28960;SDS011;16068;42.896;20.868;2023-07-13T03:31:47;12.82;;;4.68;;
28960;SDS011;16068;42.896;20.868;2023-07-13T03:34:35;11.52;;;4.35;;
28960;SDS011;16068;42.896;20.868;2023-07-13T03:37:22;7.60;;;4.10;;
28960;SDS011;16068;42.896;20.868;2023-07-13T03:40:08;8.70;;;3.90;;
28960;SDS011;16068;42.896;20.868;2023-07-13T03:42:55;9.15;;;4.35;;
28960;SDS011;16068;42.896;20.868;2023-07-13T03:45:43;7.25;;;4.30;;
28960;SDS011;16068;42.896;20.868;2023-07-13T03:48:29;7.60;;;3.78;;
28960;SDS011;16068;42.896;20.868;2023-07-13T03:51:15;10.73;;;4.10;;
28960;SDS011;16068;42.896;20.868;2023-07-13T03:54:02;8.27;;;4.43;;
28960;SDS011;16068;42.896;20.868;2023-07-13T03:56:50;17.58;;;4.72;;
28960;SDS011;16068;42.896;20.868;2023-07-13T03:59:37;7.65;;;4.00;;
28960;SDS011;16068;42.896;20.868;2023-07-13T04:02:28;11.05;;;3.90;;
28960;SDS011;16068;42.896;20.868;2023-07-13T04:05:14;11.63;;;4.30;;
28960;SDS011;16068;42.896;20.868;2023-07-13T04:08:03;12.98;;;4.25;;
28960;SDS011;16068;42.896;20.868;2023-07-13T04:10:51;14.27;;;4.97;;
28960;SDS011;16068;42.896;20.868;2023-07-13T04:13:38;11.15;;;4.60;;
28960;SDS011;16068;42.896;20.868;2023-07-13T04:16:24;21.42;;;6.80;;
28960;SDS011;16068;42.896;20.868;2023-07-13T04:19:13;11.50;;;4.78;;
28960;SDS011;16068;42.896;20.868;2023-07-13T04:21:59;14.85;;;5.18;;
28960;SDS011;16068;42.896;20.868;2023-07-13T04:24:45;112.95;;;20.55;;
28960;SDS011;16068;42.896;20.868;2023-07-13T04:27:30;21.58;;;7.53;;
28960;SDS011;16068;42.896;20.868;2023-07-13T04:30:21;15.80;;;5.45;;
28960;SDS011;16068;42.896;20.868;2023-07-13T04:33:07;12.43;;;5.57;;
28960;SDS011;16068;42.896;20.868;2023-07-13T04:35:54;13.93;;;5.45;;
28960;SDS011;16068;42.896;20.868;2023-07-13T04:38:42;10.13;;;4.55;;
28960;SDS011;16068;42.896;20.868;2023-07-13T04:41:28;9.35;;;4.72;;
28960;SDS011;16068;42.896;20.868;2023-07-13T04:44:14;9.00;;;4.80;;
28960;SDS011;16068;42.896;20.868;2023-07-13T04:47:00;14.70;;;6.18;;
28960;SDS011;16068;42.896;20.868;2023-07-13T04:49:46;15.93;;;5.53;;
28960;SDS011;16068;42.896;20.868;2023-07-13T04:52:34;11.85;;;5.40;;
28960;SDS011;16068;42.896;20.868;2023-07-13T04:55:20;27.33;;;5.57;;
28960;SDS011;16068;42.896;20.868;2023-07-13T04:58:06;18.15;;;6.90;;
28960;SDS011;16068;42.896;20.868;2023-07-13T05:01:04;15.57;;;5.00;;
28960;SDS011;16068;42.896;20.868;2023-07-13T05:03:51;13.18;;;4.75;;
28960;SDS011;16068;42.896;20.868;2023-07-13T05:06:38;12.68;;;5.03;;
28960;SDS011;16068;42.896;20.868;2023-07-13T05:09:24;14.73;;;5.03;;
28960;SDS011;16068;42.896;20.868;2023-07-13T05:12:12;14.98;;;5.05;;
28960;SDS011;16068;42.896;20.868;2023-07-13T05:14:58;17.42;;;5.43;;
28960;SDS011;16068;42.896;20.868;2023-07-13T05:17:45;15.98;;;5.55;;
28960;SDS011;16068;42.896;20.868;2023-07-13T05:20:31;14.05;;;5.07;;
28960;SDS011;16068;42.896;20.868;2023-07-13T05:23:19;13.13;;;5.07;;
28960;SDS011;16068;42.896;20.868;2023-07-13T05:26:05;9.77;;;5.10;;
28960;SDS011;16068;42.896;20.868;2023-07-13T05:28:54;11.18;;;4.90;;
28960;SDS011;16068;42.896;20.868;2023-07-13T05:31:40;8.77;;;4.88;;
28960;SDS011;16068;42.896;20.868;2023-07-13T05:34:27;40.95;;;5.25;;
28960;SDS011;16068;42.896;20.868;2023-07-13T05:37:13;26.02;;;6.93;;
28960;SDS011;16068;42.896;20.868;2023-07-13T05:39:59;15.18;;;5.85;;
28960;SDS011;16068;42.896;20.868;2023-07-13T05:42:45;14.18;;;5.75;;
28960;SDS011;16068;42.896;20.868;2023-07-13T05:45:31;16.02;;;5.20;;
28960;SDS011;16068;42.896;20.868;2023-07-13T05:48:18;16.00;;;5.47;;
28960;SDS011;16068;42.896;20.868;2023-07-13T05:51:03;15.13;;;5.38;;
28960;SDS011;16068;42.896;20.868;2023-07-13T05:53:51;16.27;;;5.03;;
28960;SDS011;16068;42.896;20.868;2023-07-13T05:56:37;16.42;;;5.20;;
28960;SDS011;16068;42.896;20.868;2023-07-13T05:59:23;16.52;;;5.38;;
28960;SDS011;16068;42.896;20.868;2023-07-13T06:02:09;11.40;;;5.28;;
28960;SDS011;16068;42.896;20.868;2023-07-13T06:04:57;11.68;;;5.07;;
28960;SDS011;16068;42.896;20.868;2023-07-13T06:07:43;14.55;;;5.55;;
28960;SDS011;16068;42.896;20.868;2023-07-13T06:10:35;12.07;;;5.18;;
28960;SDS011;16068;42.896;20.868;2023-07-13T06:13:21;15.15;;;5.47;;
28960;SDS011;16068;42.896;20.868;2023-07-13T06:16:08;15.48;;;5.53;;
28960;SDS011;16068;42.896;20.868;2023-07-13T06:18:54;10.95;;;5.10;;
28960;SDS011;16068;42.896;20.868;2023-07-13T06:21:40;13.60;;;5.78;;
28960;SDS011;16068;42.896;20.868;2023-07-13T06:24:26;25.75;;;6.35;;
28960;SDS011;16068;42.896;20.868;2023-07-13T06:27:13;14.85;;;5.70;;
28960;SDS011;16068;42.896;20.868;2023-07-13T06:29:58;15.50;;;5.60;;
28960;SDS011;16068;42.896;20.868;2023-07-13T06:32:44;17.27;;;5.95;;
28960;SDS011;16068;42.896;20.868;2023-07-13T06:35:30;11.60;;;4.93;;
28960;SDS011;16068;42.896;20.868;2023-07-13T06:38:17;11.90;;;5.57;;
28960;SDS011;16068;42.896;20.868;2023-07-13T06:41:03;15.60;;;5.47;;
28960;SDS011;16068;42.896;20.868;2023-07-13T06:43:50;15.50;;;5.60;;
28960;SDS011;16068;42.896;20.868;2023-07-13T06:46:36;24.63;;;6.75;;
28960;SDS011;16068;42.896;20.868;2023-07-13T06:49:22;25.08;;;7.40;;
28960;SDS011;16068;42.896;20.868;2023-07-13T06:52:09;18.58;;;7.20;;
28960;SDS011;16068;42.896;20.868;2023-07-13T06:54:55;17.20;;;7.57;;
28960;SDS011;16068;42.896;20.868;2023-07-13T06:57:41;14.88;;;7.13;;
28960;SDS011;16068;42.896;20.868;2023-07-13T07:00:27;18.75;;;7.55;;
28960;SDS011;16068;42.896;20.868;2023-07-13T07:03:15;16.10;;;6.60;;
28960;SDS011;16068;42.896;20.868;2023-07-13T07:06:22;16.33;;;7.35;;
28960;SDS011;16068;42.896;20.868;2023-07-13T07:09:10;15.68;;;6.20;;
28960;SDS011;16068;42.896;20.868;2023-07-13T07:11:57;11.77;;;6.03;;
28960;SDS011;16068;42.896;20.868;2023-07-13T07:14:49;19.75;;;6.88;;
28960;SDS011;16068;42.896;20.868;2023-07-13T07:17:37;11.70;;;5.55;;
28960;SDS011;16068;42.896;20.868;2023-07-13T07:20:23;13.65;;;6.10;;
28960;SDS011;16068;42.896;20.868;2023-07-13T07:23:10;14.13;;;7.32;;
28960;SDS011;16068;42.896;20.868;2023-07-13T07:25:56;18.55;;;7.00;;
28960;SDS011;16068;42.896;20.868;2023-07-13T07:28:45;19.75;;;7.35;;
28960;SDS011;16068;42.896;20.868;2023-07-13T07:31:51;16.17;;;6.80;;
28960;SDS011;16068;42.896;20.868;2023-07-13T07:34:41;14.27;;;6.50;;
28960;SDS011;16068;42.896;20.868;2023-07-13T07:37:28;12.32;;;6.90;;
28960;SDS011;16068;42.896;20.868;2023-07-13T07:40:16;7.55;;;4.85;;
28960;SDS011;16068;42.896;20.868;2023-07-13T07:43:07;8.98;;;5.25;;
28960;SDS011;16068;42.896;20.868;2023-07-13T07:45:54;11.48;;;6.78;;
28960;SDS011;16068;42.896;20.868;2023-07-13T07:48:40;22.50;;;7.88;;
28960;SDS011;16068;42.896;20.868;2023-07-13T07:51:27;8.93;;;5.45;;
28960;SDS011;16068;42.896;20.868;2023-07-13T07:54:13;14.95;;;5.32;;
28960;SDS011;16068;42.896;20.868;2023-07-13T07:57:20;16.25;;;5.70;;
28960;SDS011;16068;42.896;20.868;2023-07-13T08:00:10;13.90;;;5.95;;
28960;SDS011;16068;42.896;20.868;2023-07-13T08:03:00;12.82;;;5.10;;
28960;SDS011;16068;42.896;20.868;2023-07-13T08:06:12;10.48;;;5.40;;
28960;SDS011;16068;42.896;20.868;2023-07-13T08:09:26;11.27;;;5.18;;
28960;SDS011;16068;42.896;20.868;2023-07-13T08:12:15;13.43;;;4.30;;
28960;SDS011;16068;42.896;20.868;2023-07-13T08:15:04;13.18;;;4.75;;
28960;SDS011;16068;42.896;20.868;2023-07-13T08:17:51;7.18;;;4.30;;
28960;SDS011;16068;42.896;20.868;2023-07-13T08:20:43;13.77;;;4.53;;
28960;SDS011;16068;42.896;20.868;2023-07-13T08:23:29;11.48;;;5.03;;
28960;SDS011;16068;42.896;20.868;2023-07-13T08:26:18;10.05;;;5.35;;
28960;SDS011;16068;42.896;20.868;2023-07-13T08:29:05;10.57;;;5.63;;
28960;SDS011;16068;42.896;20.868;2023-07-13T08:31:51;13.27;;;5.07;;
28960;SDS011;16068;42.896;20.868;2023-07-13T08:34:39;9.60;;;4.28;;
28960;SDS011;16068;42.896;20.868;2023-07-13T08:37:26;9.32;;;4.90;;
28960;SDS011;16068;42.896;20.868;2023-07-13T08:40:12;9.57;;;4.57;;
28960;SDS011;16068;42.896;20.868;2023-07-13T08:43:03;11.43;;;5.57;;
28960;SDS011;16068;42.896;20.868;2023-07-13T08:45:51;10.77;;;4.78;;
28960;SDS011;16068;42.896;20.868;2023-07-13T08:48:44;8.85;;;4.68;;
28960;SDS011;16068;42.896;20.868;2023-07-13T08:51:38;11.18;;;4.90;;
28960;SDS011;16068;42.896;20.868;2023-07-13T08:57:19;10.52;;;5.28;;
28960;SDS011;16068;42.896;20.868;2023-07-13T09:00:09;9.18;;;5.45;;
28960;SDS011;16068;42.896;20.868;2023-07-13T09:03:01;11.60;;;5.40;;
28960;SDS011;16068;42.896;20.868;2023-07-13T09:05:50;9.98;;;5.93;;
28960;SDS011;16068;42.896;20.868;2023-07-13T09:08:59;9.55;;;5.85;;
28960;SDS011;16068;42.896;20.868;2023-07-13T09:11:50;10.77;;;5.82;;
28960;SDS011;16068;42.896;20.868;2023-07-13T09:17:39;13.75;;;6.07;;
28960;SDS011;16068;42.896;20.868;2023-07-13T09:20:34;11.77;;;6.63;;
28960;SDS011;16068;42.896;20.868;2023-07-13T09:23:33;10.23;;;6.60;;
28960;SDS011;16068;42.896;20.868;2023-07-13T09:26:21;16.27;;;6.82;;
28960;SDS011;16068;42.896;20.868;2023-07-13T09:29:16;12.90;;;6.53;;
28960;SDS011;16068;42.896;20.868;2023-07-13T09:32:11;12.63;;;6.28;;
28960;SDS011;16068;42.896;20.868;2023-07-13T09:35:00;10.13;;;6.40;;
28960;SDS011;16068;42.896;20.868;2023-07-13T09:37:47;17.70;;;6.80;;
28960;SDS011;16068;42.896;20.868;2023-07-13T09:40:40;9.63;;;6.00;;
28960;SDS011;16068;42.896;20.868;2023-07-13T09:47:24;12.80;;;6.32;;
28960;SDS011;16068;42.896;20.868;2023-07-13T09:50:17;12.50;;;6.85;;
28960;SDS011;16068;42.896;20.868;2023-07-13T09:53:04;9.43;;;6.18;;
28960;SDS011;16068;42.896;20.868;2023-07-13T09:55:57;11.98;;;6.00;;
28960;SDS011;16068;42.896;20.868;2023-07-13T09:58:44;12.43;;;6.88;;
28960;SDS011;16068;42.896;20.868;2023-07-13T10:01:31;11.13;;;7.07;;
28960;SDS011;16068;42.896;20.868;2023-07-13T10:04:27;12.85;;;7.60;;
28960;SDS011;16068;42.896;20.868;2023-07-13T10:07:22;19.60;;;8.05;;
28960;SDS011;16068;42.896;20.868;2023-07-13T10:10:15;15.63;;;8.38;;
28960;SDS011;16068;42.896;20.868;2023-07-13T10:13:19;11.00;;;7.50;;
28960;SDS011;16068;42.896;20.868;2023-07-13T10:16:13;19.50;;;8.63;;
28960;SDS011;16068;42.896;20.868;2023-07-13T10:19:02;15.68;;;8.63;;
28960;SDS011;16068;42.896;20.868;2023-07-13T10:21:57;14.45;;;8.98;;
28960;SDS011;16068;42.896;20.868;2023-07-13T10:25:13;16.25;;;8.85;;
28960;SDS011;16068;42.896;20.868;2023-07-13T10:28:04;14.80;;;7.90;;
28960;SDS011;16068;42.896;20.868;2023-07-13T10:33:42;15.50;;;9.00;;
28960;SDS011;16068;42.896;20.868;2023-07-13T10:39:33;15.43;;;9.60;;
28960;SDS011;16068;42.896;20.868;2023-07-13T10:42:27;20.75;;;11.07;;
28960;SDS011;16068;42.896;20.868;2023-07-13T10:45:22;18.42;;;10.18;;
28960;SDS011;16068;42.896;20.868;2023-07-13T10:48:11;18.45;;;11.20;;
28960;SDS011;16068;42.896;20.868;2023-07-13T10:51:04;14.25;;;10.88;;
28960;SDS011;16068;42.896;20.868;2023-07-13T10:57:18;20.85;;;13.05;;
28960;SDS011;16068;42.896;20.868;2023-07-13T11:03:00;18.40;;;10.18;;
28960;SDS011;16068;42.896;20.868;2023-07-13T11:05:50;13.93;;;9.73;;
28960;SDS011;16068;42.896;20.868;2023-07-13T11:12:08;17.27;;;10.30;;
28960;SDS011;16068;42.896;20.868;2023-07-13T11:15:26;19.65;;;10.02;;
28960;SDS011;16068;42.896;20.868;2023-07-13T11:18:28;18.48;;;10.32;;
28960;SDS011;16068;42.896;20.868;2023-07-13T11:21:21;14.65;;;9.90;;
28960;SDS011;16068;42.896;20.868;2023-07-13T11:24:19;14.27;;;10.85;;
28960;SDS011;16068;42.896;20.868;2023-07-13T11:27:18;16.67;;;9.93;;
28960;SDS011;16068;42.896;20.868;2023-07-13T11:33:19;12.82;;;9.65;;
28960;SDS011;16068;42.896;20.868;2023-07-13T11:39:11;18.05;;;9.90;;
28960;SDS011;16068;42.896;20.868;2023-07-13T11:42:03;16.08;;;10.40;;
28960;SDS011;16068;42.896;20.868;2023-07-13T11:45:12;17.08;;;10.65;;
28960;SDS011;16068;42.896;20.868;2023-07-13T11:48:22;17.45;;;10.40;;
28960;SDS011;16068;42.896;20.868;2023-07-13T11:51:10;14.43;;;10.85;;
28960;SDS011;16068;42.896;20.868;2023-07-13T11:57:21;17.88;;;10.38;;
28960;SDS011;16068;42.896;20.868;2023-07-13T12:00:23;18.92;;;12.38;;
28960;SDS011;16068;42.896;20.868;2023-07-13T12:03:12;19.95;;;10.95;;
28960;SDS011;16068;42.896;20.868;2023-07-13T12:06:01;20.92;;;10.57;;
28960;SDS011;16068;42.896;20.868;2023-07-13T12:08:51;21.98;;;10.00;;
28960;SDS011;16068;42.896;20.868;2023-07-13T12:11:38;13.93;;;10.13;;
28960;SDS011;16068;42.896;20.868;2023-07-13T12:14:26;13.25;;;9.80;;
28960;SDS011;16068;42.896;20.868;2023-07-13T12:17:20;16.90;;;9.95;;
28960;SDS011;16068;42.896;20.868;2023-07-13T12:20:27;18.48;;;11.07;;
28960;SDS011;16068;42.896;20.868;2023-07-13T12:23:36;22.35;;;11.07;;
28960;SDS011;16068;42.896;20.868;2023-07-13T12:26:22;14.65;;;9.48;;
28960;SDS011;16068;42.896;20.868;2023-07-13T12:29:14;19.00;;;10.38;;
28960;SDS011;16068;42.896;20.868;2023-07-13T12:32:01;14.20;;;9.65;;
28960;SDS011;16068;42.896;20.868;2023-07-13T12:34:55;18.23;;;9.93;;
28960;SDS011;16068;42.896;20.868;2023-07-13T12:37:42;21.90;;;10.10;;
28960;SDS011;16068;42.896;20.868;2023-07-13T12:40:34;14.43;;;10.02;;
28960;SDS011;16068;42.896;20.868;2023-07-13T12:43:23;14.68;;;9.25;;
28960;SDS011;16068;42.896;20.868;2023-07-13T12:46:17;14.63;;;9.48;;
28960;SDS011;16068;42.896;20.868;2023-07-13T12:49:07;14.88;;;9.35;;
28960;SDS011;16068;42.896;20.868;2023-07-13T12:52:16;14.18;;;9.30;;
28960;SDS011;16068;42.896;20.868;2023-07-13T12:55:10;21.05;;;10.07;;
28960;SDS011;16068;42.896;20.868;2023-07-13T12:58:13;14.80;;;9.68;;
28960;SDS011;16068;42.896;20.868;2023-07-13T13:01:54;17.33;;;10.27;;
28960;SDS011;16068;42.896;20.868;2023-07-13T13:04:40;19.23;;;10.95;;
28960;SDS011;16068;42.896;20.868;2023-07-13T13:07:45;14.52;;;10.18;;
28960;SDS011;16068;42.896;20.868;2023-07-13T13:10:32;19.85;;;10.98;;
28960;SDS011;16068;42.896;20.868;2023-07-13T13:13:18;13.57;;;9.77;;
28960;SDS011;16068;42.896;20.868;2023-07-13T13:16:19;15.85;;;9.50;;
28960;SDS011;16068;42.896;20.868;2023-07-13T13:19:16;13.48;;;9.90;;
28960;SDS011;16068;42.896;20.868;2023-07-13T13:22:05;10.93;;;8.00;;
28960;SDS011;16068;42.896;20.868;2023-07-13T13:24:52;15.10;;;9.50;;
28960;SDS011;16068;42.896;20.868;2023-07-13T13:27:43;16.65;;;9.43;;
28960;SDS011;16068;42.896;20.868;2023-07-13T13:30:30;13.20;;;8.90;;
28960;SDS011;16068;42.896;20.868;2023-07-13T13:33:18;12.68;;;8.45;;
28960;SDS011;16068;42.896;20.868;2023-07-13T13:36:07;12.88;;;8.73;;
28960;SDS011;16068;42.896;20.868;2023-07-13T13:39:21;17.40;;;9.27;;
28960;SDS011;16068;42.896;20.868;2023-07-13T13:42:09;14.93;;;8.82;;
28960;SDS011;16068;42.896;20.868;2023-07-13T13:44:57;11.80;;;7.93;;
28960;SDS011;16068;42.896;20.868;2023-07-13T13:47:44;15.00;;;7.20;;
28960;SDS011;16068;42.896;20.868;2023-07-13T13:50:30;11.88;;;8.10;;
28960;SDS011;16068;42.896;20.868;2023-07-13T13:53:16;12.90;;;7.88;;
28960;SDS011;16068;42.896;20.868;2023-07-13T13:56:04;13.93;;;7.95;;
28960;SDS011;16068;42.896;20.868;2023-07-13T13:58:50;13.60;;;9.07;;
28960;SDS011;16068;42.896;20.868;2023-07-13T14:01:36;15.18;;;8.25;;
28960;SDS011;16068;42.896;20.868;2023-07-13T14:04:24;13.32;;;8.23;;
28960;SDS011;16068;42.896;20.868;2023-07-13T14:07:10;16.45;;;10.05;;
28960;SDS011;16068;42.896;20.868;2023-07-13T14:09:57;14.40;;;10.77;;
28960;SDS011;16068;42.896;20.868;2023-07-13T14:12:45;12.18;;;9.77;;
28960;SDS011;16068;42.896;20.868;2023-07-13T14:15:33;15.65;;;8.32;;
28960;SDS011;16068;42.896;20.868;2023-07-13T14:18:19;11.65;;;9.10;;
28960;SDS011;16068;42.896;20.868;2023-07-13T14:21:17;14.40;;;7.57;;
28960;SDS011;16068;42.896;20.868;2023-07-13T14:24:04;12.70;;;8.57;;
28960;SDS011;16068;42.896;20.868;2023-07-13T14:26:55;13.13;;;8.68;;
28960;SDS011;16068;42.896;20.868;2023-07-13T14:29:41;12.55;;;7.95;;
28960;SDS011;16068;42.896;20.868;2023-07-13T14:32:31;11.68;;;7.78;;
28960;SDS011;16068;42.896;20.868;2023-07-13T14:35:18;10.25;;;7.78;;
28960;SDS011;16068;42.896;20.868;2023-07-13T14:38:09;11.35;;;7.47;;
28960;SDS011;16068;42.896;20.868;2023-07-13T14:40:59;9.43;;;7.28;;
28960;SDS011;16068;42.896;20.868;2023-07-13T14:43:46;15.13;;;8.38;;
28960;SDS011;16068;42.896;20.868;2023-07-13T14:46:35;18.27;;;7.35;;
28960;SDS011;16068;42.896;20.868;2023-07-13T14:49:29;18.77;;;7.65;;
28960;SDS011;16068;42.896;20.868;2023-07-13T14:52:17;15.73;;;7.40;;
28960;SDS011;16068;42.896;20.868;2023-07-13T14:55:13;14.45;;;7.40;;
28960;SDS011;16068;42.896;20.868;2023-07-13T14:58:20;18.70;;;6.85;;
28960;SDS011;16068;42.896;20.868;2023-07-13T15:01:10;17.30;;;7.22;;
28960;SDS011;16068;42.896;20.868;2023-07-13T15:04:00;11.27;;;7.18;;
28960;SDS011;16068;42.896;20.868;2023-07-13T15:07:02;12.50;;;6.80;;
28960;SDS011;16068;42.896;20.868;2023-07-13T15:09:49;13.45;;;8.45;;
28960;SDS011;16068;42.896;20.868;2023-07-13T15:12:36;17.90;;;11.73;;
28960;SDS011;16068;42.896;20.868;2023-07-13T15:15:23;20.15;;;13.48;;
28960;SDS011;16068;42.896;20.868;2023-07-13T15:18:14;21.23;;;16.05;;
28960;SDS011;16068;42.896;20.868;2023-07-13T15:21:02;20.77;;;14.20;;
28960;SDS011;16068;42.896;20.868;2023-07-13T15:23:52;23.80;;;15.45;;
28960;SDS011;16068;42.896;20.868;2023-07-13T15:26:46;25.17;;;18.85;;
28960;SDS011;16068;42.896;20.868;2023-07-13T15:29:36;20.67;;;9.55;;
28960;SDS011;16068;42.896;20.868;2023-07-13T15:32:22;22.65;;;16.65;;
28960;SDS011;16068;42.896;20.868;2023-07-13T15:35:17;25.45;;;17.75;;
28960;SDS011;16068;42.896;20.868;2023-07-13T15:38:29;21.17;;;16.92;;
28960;SDS011;16068;42.896;20.868;2023-07-13T15:41:23;19.38;;;13.98;;
28960;SDS011;16068;42.896;20.868;2023-07-13T15:44:29;18.88;;;14.18;;
28960;SDS011;16068;42.896;20.868;2023-07-13T15:47:16;19.33;;;16.70;;
28960;SDS011;16068;42.896;20.868;2023-07-13T15:50:05;26.80;;;20.05;;
28960;SDS011;16068;42.896;20.868;2023-07-13T15:52:58;25.55;;;18.83;;
28960;SDS011;16068;42.896;20.868;2023-07-13T15:55:45;30.77;;;19.50;;
28960;SDS011;16068;42.896;20.868;2023-07-13T15:58:31;22.65;;;16.38;;
28960;SDS011;16068;42.896;20.868;2023-07-13T16:01:17;23.92;;;17.08;;
28960;SDS011;16068;42.896;20.868;2023-07-13T16:04:08;20.17;;;16.33;;
28960;SDS011;16068;42.896;20.868;2023-07-13T16:06:54;22.05;;;15.88;;
28960;SDS011;16068;42.896;20.868;2023-07-13T16:09:43;17.30;;;13.70;;
28960;SDS011;16068;42.896;20.868;2023-07-13T16:12:30;18.75;;;11.85;;
28960;SDS011;16068;42.896;20.868;2023-07-13T16:15:20;19.15;;;14.30;;
28960;SDS011;16068;42.896;20.868;2023-07-13T16:18:08;17.65;;;14.30;;
28960;SDS011;16068;42.896;20.868;2023-07-13T16:20:56;127.28;;;28.33;;
28960;SDS011;16068;42.896;20.868;2023-07-13T16:23:44;110.80;;;27.17;;
28960;SDS011;16068;42.896;20.868;2023-07-13T16:29:34;40.17;;;16.63;;
28960;SDS011;16068;42.896;20.868;2023-07-13T16:32:20;36.50;;;16.05;;
28960;SDS011;16068;42.896;20.868;2023-07-13T16:35:10;29.40;;;14.43;;
28960;SDS011;16068;42.896;20.868;2023-07-13T16:37:56;34.90;;;16.30;;
28960;SDS011;16068;42.896;20.868;2023-07-13T16:40:49;28.65;;;12.05;;
28960;SDS011;16068;42.896;20.868;2023-07-13T16:43:40;34.10;;;15.15;;
28960;SDS011;16068;42.896;20.868;2023-07-13T16:46:26;36.67;;;16.02;;
28960;SDS011;16068;42.896;20.868;2023-07-13T16:49:23;19.13;;;11.63;;
28960;SDS011;16068;42.896;20.868;2023-07-13T16:52:16;19.08;;;11.55;;
28960;SDS011;16068;42.896;20.868;2023-07-13T16:55:10;23.10;;;12.30;;
28960;SDS011;16068;42.896;20.868;2023-07-13T16:57:59;25.40;;;13.95;;
28960;SDS011;16068;42.896;20.868;2023-07-13T17:00:48;28.60;;;15.10;;
28960;SDS011;16068;42.896;20.868;2023-07-13T17:04:13;27.55;;;15.40;;
28960;SDS011;16068;42.896;20.868;2023-07-13T17:11:01;23.35;;;13.60;;
28960;SDS011;16068;42.896;20.868;2023-07-13T17:13:48;43.28;;;33.22;;
28960;SDS011;16068;42.896;20.868;2023-07-13T17:16:34;40.08;;;30.30;;
28960;SDS011;16068;42.896;20.868;2023-07-13T17:19:22;23.25;;;14.27;;
28960;SDS011;16068;42.896;20.868;2023-07-13T17:22:12;32.60;;;25.52;;
28960;SDS011;16068;42.896;20.868;2023-07-13T17:25:04;24.30;;;17.85;;